createdAt,value
2022-09-27T00:00:12.152Z,1.00
2022-09-27T00:02:38.976Z,0.80
2022-09-27T00:05:06.002Z,0.90
2022-09-27T00:07:33.253Z,0.82
2022-09-27T00:09:59.956Z,0.80
2022-09-27T00:12:26.592Z,1.00
2022-09-27T00:14:53.261Z,0.35
2022-09-27T00:17:20.077Z,0.85
2022-09-27T00:19:46.811Z,1.20
2022-09-27T00:22:13.561Z,0.68
2022-09-27T00:24:40.209Z,0.98
2022-09-27T00:27:06.855Z,0.77
2022-09-27T00:29:33.677Z,0.68
2022-09-27T00:32:00.606Z,0.85
2022-09-27T00:34:27.474Z,0.60
2022-09-27T00:36:55.595Z,0.60
2022-09-27T00:39:22.369Z,0.90
2022-09-27T00:41:48.969Z,0.73
2022-09-27T00:44:28.537Z,0.60
2022-09-27T00:47:02.629Z,0.50
2022-09-27T00:49:38.736Z,0.90
2022-09-27T00:52:16.833Z,0.70
2022-09-27T00:54:48.732Z,0.77
2022-09-27T00:57:15.921Z,0.93
2022-09-27T00:59:48.015Z,0.50
2022-09-27T01:02:15.525Z,0.80
2022-09-27T01:04:43.674Z,0.57
2022-09-27T01:07:10.272Z,0.63
2022-09-27T01:09:37.415Z,0.50
2022-09-27T01:12:25.212Z,0.85
2022-09-27T01:15:09.994Z,0.50
2022-09-27T01:18:06.148Z,0.68
2022-09-27T01:20:45.481Z,0.45
2022-09-27T01:23:33.568Z,0.82
2022-09-27T01:26:16.792Z,0.40
2022-09-27T01:28:58.276Z,0.85
2022-09-27T01:31:33.951Z,0.80
2022-09-27T01:34:03.614Z,0.90
2022-09-27T01:36:58.026Z,0.50
2022-09-27T01:39:46.769Z,0.85
2022-09-27T01:42:31.444Z,0.73
2022-09-27T01:45:14.848Z,0.70
2022-09-27T01:47:47.418Z,0.63
2022-09-27T01:50:19.146Z,0.65
2022-09-27T01:52:54.416Z,0.50
2022-09-27T01:55:26.150Z,0.82
2022-09-27T01:58:02.108Z,0.88
2022-09-27T02:00:28.957Z,0.77
2022-09-27T02:02:59.415Z,0.93
2022-09-27T02:05:33.691Z,0.50
2022-09-27T02:08:04.531Z,0.93
2022-09-27T02:10:40.838Z,1.13
2022-09-27T02:13:37.631Z,0.90
2022-09-27T02:16:37.548Z,0.93
2022-09-27T02:19:12.032Z,0.90
2022-09-27T02:22:03.434Z,1.23
2022-09-27T02:24:41.177Z,0.73
2022-09-27T02:27:22.748Z,0.95
2022-09-27T02:30:01.619Z,1.10
2022-09-27T02:32:28.563Z,0.90
2022-09-27T02:34:57.616Z,0.85
2022-09-27T02:37:24.420Z,0.90
2022-09-27T02:39:51.434Z,0.73
2022-09-27T02:42:18.533Z,1.20
2022-09-27T02:44:45.887Z,1.13
2022-09-27T02:47:25.268Z,0.60
2022-09-27T02:50:01.483Z,0.93
2022-09-27T02:52:59.180Z,0.90
2022-09-27T02:55:25.865Z,0.90
2022-09-27T02:58:06.696Z,0.85
2022-09-27T03:00:57.683Z,0.93
2022-09-27T03:03:42.892Z,0.80
2022-09-27T03:06:15.900Z,0.98
2022-09-27T03:08:44.252Z,0.75
2022-09-27T03:11:10.908Z,0.85
2022-09-27T03:14:01.354Z,1.20
2022-09-27T03:16:25.657Z,0.98
2022-09-27T03:18:53.834Z,1.23
2022-09-27T03:21:20.649Z,1.02
2022-09-27T03:23:47.379Z,1.52
2022-09-27T03:26:14.032Z,0.63
2022-09-27T03:28:40.595Z,0.95
2022-09-27T03:31:07.304Z,1.17
2022-09-27T03:33:33.959Z,1.38
2022-09-27T03:36:00.776Z,1.15
2022-09-27T03:38:27.573Z,1.05
2022-09-27T03:40:54.309Z,1.23
2022-09-27T03:43:20.958Z,0.88
2022-09-27T03:45:47.842Z,1.42
2022-09-27T03:48:15.023Z,1.13
2022-09-27T03:50:41.648Z,1.02
2022-09-27T03:53:08.905Z,1.20
2022-09-27T03:55:35.957Z,1.70
2022-09-27T03:58:02.619Z,1.38
2022-09-27T04:00:31.791Z,1.70
2022-09-27T04:02:59.738Z,1.20
2022-09-27T04:05:28.673Z,1.08
2022-09-27T04:07:56.408Z,1.42
2022-09-27T04:10:23.085Z,1.15
2022-09-27T04:12:49.989Z,1.30
2022-09-27T04:15:17.023Z,1.20
2022-09-27T04:17:43.759Z,1.55
2022-09-27T04:20:11.465Z,1.60
2022-09-27T04:22:42.189Z,1.50
2022-09-27T04:25:10.251Z,1.08
2022-09-27T04:27:37.007Z,1.35
2022-09-27T04:30:06.202Z,0.82
2022-09-27T04:32:33.135Z,1.05
2022-09-27T04:35:18.378Z,1.38
2022-09-27T04:37:46.604Z,1.42
2022-09-27T04:40:13.597Z,1.50
2022-09-27T04:42:40.315Z,1.45
2022-09-27T04:45:07.533Z,1.50
2022-09-27T04:47:34.361Z,1.13
2022-09-27T04:50:01.033Z,1.40
2022-09-27T04:52:27.637Z,1.38
2022-09-27T04:54:54.401Z,1.30
2022-09-27T04:57:20.973Z,1.55
2022-09-27T04:59:47.742Z,1.30
2022-09-27T05:02:16.496Z,1.23
2022-09-27T05:04:43.279Z,1.02
2022-09-27T05:07:09.893Z,0.98
2022-09-27T05:09:36.681Z,1.25
2022-09-27T05:12:03.633Z,0.93
2022-09-27T05:14:30.402Z,0.95
2022-09-27T05:16:58.138Z,0.93
2022-09-27T05:19:24.978Z,1.23
2022-09-27T05:21:51.876Z,1.23
2022-09-27T05:24:18.537Z,0.70
2022-09-27T05:26:47.069Z,1.10
2022-09-27T05:29:13.787Z,1.05
2022-09-27T05:31:40.569Z,0.77
2022-09-27T05:34:12.283Z,1.80
2022-09-27T05:36:39.723Z,1.05
2022-09-27T05:39:07.520Z,1.35
2022-09-27T05:41:34.542Z,0.75
2022-09-27T05:44:01.394Z,1.20
2022-09-27T05:46:28.393Z,1.33
2022-09-27T05:48:55.385Z,1.60
2022-09-27T05:51:22.078Z,1.08
2022-09-27T05:53:48.678Z,1.15
2022-09-27T05:56:17.610Z,1.55
2022-09-27T05:58:44.244Z,1.38
2022-09-27T06:01:11.360Z,1.70
2022-09-27T06:03:38.059Z,1.13
2022-09-27T06:06:06.418Z,1.60
2022-09-27T06:08:37.351Z,1.58
2022-09-27T06:11:09.007Z,1.90
2022-09-27T06:13:36.454Z,1.15
2022-09-27T06:16:07.850Z,1.20
2022-09-27T06:18:34.904Z,1.23
2022-09-27T06:21:03.280Z,1.52
2022-09-27T06:23:33.520Z,1.45
2022-09-27T06:26:06.009Z,1.38
2022-09-27T06:28:35.436Z,1.42
2022-09-27T06:31:02.459Z,1.15
2022-09-27T06:33:30.659Z,1.58
2022-09-27T06:35:57.249Z,1.00
2022-09-27T06:38:26.638Z,1.13
2022-09-27T06:40:53.514Z,0.80
2022-09-27T06:43:21.325Z,0.93
2022-09-27T06:45:48.484Z,0.95
2022-09-27T06:48:17.094Z,1.23
2022-09-27T06:50:45.768Z,0.50
2022-09-27T06:53:17.086Z,1.05
2022-09-27T06:55:44.367Z,0.93
2022-09-27T06:58:30.480Z,0.95
2022-09-27T07:00:58.633Z,1.33
2022-09-27T07:03:37.643Z,0.95
2022-09-27T07:06:07.490Z,1.10
2022-09-27T07:08:36.129Z,0.90
2022-09-27T07:11:06.044Z,1.15
2022-09-27T07:13:34.680Z,1.00
2022-09-27T07:16:01.926Z,1.33
2022-09-27T07:18:29.163Z,1.20
2022-09-27T07:20:59.918Z,1.17
2022-09-27T07:23:30.047Z,1.40
2022-09-27T07:25:58.980Z,2.00
2022-09-27T07:28:25.790Z,1.40
2022-09-27T07:30:56.276Z,1.25
2022-09-27T07:33:23.605Z,1.40
2022-09-27T07:35:50.339Z,1.50
2022-09-27T07:38:17.332Z,1.40
2022-09-27T07:40:44.374Z,0.85
2022-09-27T07:43:12.239Z,1.08
2022-09-27T07:45:39.369Z,1.40
2022-09-27T07:48:07.504Z,1.23
2022-09-27T07:50:34.803Z,1.55
2022-09-27T07:53:01.458Z,1.17
2022-09-27T07:55:28.478Z,1.30
2022-09-27T07:58:06.140Z,1.23
2022-09-27T08:00:33.179Z,1.30
2022-09-27T08:03:08.040Z,0.90
2022-09-27T08:05:36.278Z,1.70
2022-09-27T08:08:03.969Z,1.40
2022-09-27T08:10:32.361Z,1.20
2022-09-27T08:13:03.153Z,1.42
2022-09-27T08:15:31.932Z,1.08
2022-09-27T08:17:58.824Z,1.15
2022-09-27T08:20:25.678Z,1.17
2022-09-27T08:22:52.379Z,1.23
2022-09-27T08:25:19.320Z,1.42
2022-09-27T08:27:56.520Z,1.25
2022-09-27T08:30:23.404Z,1.63
2022-09-27T08:32:50.262Z,1.85
2022-09-27T08:35:16.984Z,1.60
2022-09-27T08:37:43.535Z,0.77
2022-09-27T08:40:14.077Z,1.17
2022-09-27T08:43:12.620Z,1.50
2022-09-27T08:46:14.693Z,1.45
2022-09-27T08:48:44.150Z,1.17
2022-09-27T08:51:13.653Z,1.25
2022-09-27T08:53:51.141Z,1.40
2022-09-27T08:56:21.272Z,1.13
2022-09-27T08:59:05.524Z,1.00
2022-09-27T09:01:32.616Z,1.00
2022-09-27T09:04:01.899Z,1.00
2022-09-27T09:06:45.816Z,0.80
2022-09-27T09:10:06.019Z,1.23
2022-09-27T09:12:47.408Z,1.40
2022-09-27T09:15:54.147Z,1.00
2022-09-27T09:18:44.884Z,1.45
2022-09-27T09:21:43.191Z,0.95
2022-09-27T09:24:48.000Z,0.70
2022-09-27T09:27:23.257Z,1.17
2022-09-27T09:30:13.199Z,1.13
2022-09-27T09:32:54.255Z,0.73
2022-09-27T09:35:37.451Z,1.05
2022-09-27T09:38:12.667Z,1.20
2022-09-27T09:40:50.013Z,1.20
2022-09-27T09:43:45.248Z,1.15
2022-09-27T09:46:42.296Z,0.80
2022-09-27T09:49:12.006Z,0.75
2022-09-27T09:51:44.363Z,0.52
2022-09-27T09:56:48.394Z,1.42
2022-09-27T10:01:56.357Z,0.63
2022-09-27T10:04:28.245Z,1.10
2022-09-27T10:06:58.624Z,0.98
2022-09-27T10:09:27.822Z,0.40
2022-09-27T10:11:54.600Z,0.82
2022-09-27T10:14:22.790Z,0.80
2022-09-27T10:16:57.583Z,1.13
2022-09-27T10:19:37.279Z,0.65
2022-09-27T10:22:18.822Z,0.63
2022-09-27T10:25:02.416Z,0.60
2022-09-27T10:27:42.536Z,0.80
2022-09-27T10:30:33.165Z,0.45
2022-09-27T10:33:15.864Z,1.02
2022-09-27T10:35:45.116Z,0.75
2022-09-27T10:38:30.363Z,1.17
2022-09-27T10:41:15.254Z,0.88
2022-09-27T10:43:42.192Z,1.00
2022-09-27T10:46:08.896Z,0.80
2022-09-27T10:48:37.668Z,0.93
2022-09-27T10:51:07.081Z,0.63
2022-09-27T10:53:36.677Z,0.95
2022-09-27T10:56:03.625Z,0.60
2022-09-27T10:58:34.162Z,0.80
2022-09-27T11:01:04.055Z,0.98
2022-09-27T11:03:33.691Z,0.52
2022-09-27T11:06:00.531Z,0.50
2022-09-27T11:08:34.023Z,0.68
2022-09-27T11:11:21.347Z,0.68
2022-09-27T11:14:04.435Z,0.52
2022-09-27T11:16:59.741Z,0.70
2022-09-27T11:20:02.750Z,0.80
2022-09-27T11:22:45.391Z,0.50
2022-09-27T11:25:18.018Z,0.90
2022-09-27T11:27:59.531Z,0.50
2022-09-27T11:30:56.176Z,0.80
2022-09-27T11:33:41.104Z,0.60
2022-09-27T11:36:33.112Z,0.70
2022-09-27T11:39:22.882Z,1.10
2022-09-27T11:41:54.012Z,0.98
2022-09-27T11:44:38.591Z,0.85
2022-09-27T11:47:49.548Z,0.80
2022-09-27T11:50:53.707Z,0.50
2022-09-27T11:53:35.325Z,0.70
2022-09-27T11:56:23.063Z,1.00
2022-09-27T11:59:04.779Z,0.60
2022-09-27T12:01:46.984Z,0.57
2022-09-27T12:04:40.034Z,0.60
2022-09-27T12:07:27.981Z,0.52
2022-09-27T12:10:01.472Z,0.65
2022-09-27T12:12:35.409Z,0.60
2022-09-27T12:15:07.107Z,0.93
2022-09-27T12:17:38.833Z,0.40
2022-09-27T12:20:30.041Z,0.57
2022-09-27T12:23:07.934Z,0.90
2022-09-27T12:25:41.455Z,0.65
2022-09-27T12:28:55.356Z,0.95
2022-09-27T12:31:30.873Z,0.77
2022-09-27T12:34:20.334Z,0.85
2022-09-27T12:37:00.505Z,0.60
2022-09-27T12:39:52.281Z,0.70
2022-09-27T12:42:25.882Z,0.60
2022-09-27T12:44:53.384Z,0.80
2022-09-27T12:47:38.719Z,1.00
2022-09-27T12:50:30.145Z,0.60
2022-09-27T12:53:05.320Z,0.90
2022-09-27T12:55:55.512Z,0.77
2022-09-27T12:58:24.915Z,0.80
2022-09-27T13:01:18.111Z,1.20
2022-09-27T13:04:10.510Z,0.75
2022-09-27T13:07:08.142Z,0.80
2022-09-27T13:09:50.839Z,0.90
2022-09-27T13:12:22.330Z,0.60
2022-09-27T13:15:04.513Z,0.80
2022-09-27T13:17:40.828Z,0.82
2022-09-27T13:20:35.715Z,1.02
2022-09-27T13:23:20.408Z,0.77
2022-09-27T13:25:59.669Z,0.90
2022-09-27T13:28:32.246Z,0.98
2022-09-27T13:31:12.923Z,1.10
2022-09-27T13:33:46.571Z,0.80
2022-09-27T13:36:26.041Z,0.95
2022-09-27T13:38:55.166Z,1.00
2022-09-27T13:41:21.961Z,1.00
2022-09-27T13:43:56.970Z,1.10
2022-09-27T13:46:27.034Z,1.00
2022-09-27T13:49:16.113Z,0.90
2022-09-27T13:51:54.888Z,1.05
2022-09-27T13:54:50.215Z,0.95
2022-09-27T13:57:51.585Z,1.05
2022-09-27T14:00:22.947Z,1.25
2022-09-27T14:03:02.730Z,0.90
2022-09-27T14:05:38.464Z,0.70
2022-09-27T14:08:07.141Z,1.00
2022-09-27T14:10:35.833Z,0.80
2022-09-27T14:13:05.966Z,0.80
2022-09-27T14:15:34.019Z,0.98
2022-09-27T14:18:01.244Z,0.52
2022-09-27T14:20:39.897Z,1.38
2022-09-27T14:23:13.821Z,0.73
2022-09-27T14:25:47.846Z,0.98
2022-09-27T14:28:28.132Z,0.85
2022-09-27T14:31:18.506Z,1.10
2022-09-27T14:33:45.819Z,0.80
2022-09-27T14:36:48.820Z,1.20
2022-09-27T14:39:20.273Z,0.73
2022-09-27T14:41:46.979Z,1.00
2022-09-27T14:44:19.213Z,0.88
2022-09-27T14:46:46.904Z,1.27
2022-09-27T14:49:23.176Z,1.02
2022-09-27T14:51:54.746Z,0.93
2022-09-27T14:54:26.392Z,1.08
2022-09-27T14:56:57.713Z,2.33
2022-09-27T14:59:35.326Z,1.70
2022-09-27T15:02:15.919Z,1.70
2022-09-27T15:04:46.940Z,1.63
2022-09-27T15:07:16.164Z,1.27
2022-09-27T15:09:44.008Z,1.00
2022-09-27T15:12:16.379Z,1.10
2022-09-27T15:14:44.851Z,1.60
2022-09-27T15:17:20.913Z,1.80
2022-09-27T15:19:58.508Z,1.60
2022-09-27T15:22:45.866Z,1.60
2022-09-27T15:25:34.327Z,1.67
2022-09-27T15:28:11.168Z,2.58
2022-09-27T15:30:41.518Z,1.67
2022-09-27T15:33:36.891Z,1.60
2022-09-27T15:36:07.195Z,1.63
2022-09-27T15:38:36.036Z,1.63
2022-09-27T15:41:14.561Z,2.00
2022-09-27T15:43:45.664Z,1.50
2022-09-27T15:46:33.913Z,1.55
2022-09-27T15:49:22.824Z,1.50
2022-09-27T15:51:51.832Z,1.90
2022-09-27T15:54:20.774Z,2.10
2022-09-27T15:56:55.286Z,2.00
2022-09-27T15:59:28.137Z,2.30
2022-09-27T16:02:21.777Z,2.50
2022-09-27T16:04:48.607Z,1.90
2022-09-27T16:07:15.647Z,1.80
2022-09-27T16:09:43.511Z,2.17
2022-09-27T16:12:10.126Z,2.15
2022-09-27T16:14:36.886Z,2.15
2022-09-27T16:17:03.495Z,1.83
2022-09-27T16:19:30.160Z,1.90
2022-09-27T16:21:56.794Z,1.55
2022-09-27T16:24:25.114Z,1.90
2022-09-27T16:26:51.709Z,1.83
2022-09-27T16:29:18.536Z,1.73
2022-09-27T16:31:45.676Z,1.55
2022-09-27T16:34:13.228Z,1.63
2022-09-27T16:36:40.617Z,1.73
2022-09-27T16:39:10.535Z,1.73
2022-09-27T16:41:37.379Z,1.58
2022-09-27T16:44:12.649Z,1.50
2022-09-27T16:46:48.923Z,1.50
2022-09-27T16:49:34.261Z,2.33
2022-09-27T16:52:01.163Z,1.75
2022-09-27T16:54:29.376Z,2.55
2022-09-27T16:56:59.821Z,1.60
2022-09-27T16:59:27.213Z,2.60
2022-09-27T17:01:57.679Z,2.15
2022-09-27T17:04:26.601Z,1.40
2022-09-27T17:06:54.596Z,1.77
2022-09-27T17:09:22.051Z,1.58
2022-09-27T17:11:49.067Z,1.90
2022-09-27T17:14:17.183Z,1.38
2022-09-27T17:16:45.582Z,1.60
2022-09-27T17:19:13.658Z,1.48
2022-09-27T17:21:43.399Z,1.67
2022-09-27T17:24:10.733Z,1.65
2022-09-27T17:26:37.956Z,1.77
2022-09-27T17:29:04.607Z,1.90
2022-09-27T17:31:35.017Z,1.65
2022-09-27T17:34:02.531Z,2.70
2022-09-27T17:36:33.874Z,2.47
2022-09-27T17:39:01.572Z,2.08
2022-09-27T17:41:29.154Z,2.08
2022-09-27T17:44:00.690Z,1.77
2022-09-27T17:46:32.637Z,2.22
2022-09-27T17:49:18.950Z,1.98
2022-09-27T17:51:53.275Z,3.15
2022-09-27T17:54:26.303Z,2.33
2022-09-27T17:56:53.471Z,1.63
2022-09-27T17:59:20.353Z,1.60
2022-09-27T18:01:47.994Z,2.30
2022-09-27T18:04:17.613Z,2.20
2022-09-27T18:06:46.262Z,1.70
2022-09-27T18:09:14.806Z,2.20
2022-09-27T18:11:42.189Z,1.92
2022-09-27T18:14:11.014Z,2.88
2022-09-27T18:16:42.782Z,3.38
2022-09-27T18:19:12.757Z,2.30
2022-09-27T18:21:40.044Z,2.55
2022-09-27T18:24:07.516Z,2.42
2022-09-27T18:26:39.224Z,1.90
2022-09-27T18:29:11.948Z,2.20
2022-09-27T18:31:40.032Z,2.42
2022-09-27T18:34:08.015Z,2.13
2022-09-27T18:36:35.164Z,2.53
2022-09-27T18:39:03.954Z,2.42
2022-09-27T18:41:33.220Z,2.92
2022-09-27T18:44:02.127Z,3.92
2022-09-27T18:46:35.606Z,3.30
2022-09-27T18:49:04.802Z,3.15
2022-09-27T18:51:32.382Z,2.17
2022-09-27T18:54:06.264Z,2.70
2022-09-27T18:56:39.217Z,2.60
2022-09-27T18:59:08.595Z,2.75
2022-09-27T19:01:40.496Z,2.30
2022-09-27T19:04:09.180Z,2.35
2022-09-27T19:06:37.401Z,3.10
2022-09-27T19:09:05.832Z,2.88
2022-09-27T19:11:33.873Z,3.10
2022-09-27T19:14:01.286Z,2.70
2022-09-27T19:16:29.452Z,3.63
2022-09-27T19:18:56.453Z,3.10
2022-09-27T19:21:27.153Z,3.00
2022-09-27T19:23:54.606Z,4.05
2022-09-27T19:26:23.934Z,3.65
2022-09-27T19:28:51.377Z,3.25
2022-09-27T19:31:26.712Z,3.72
2022-09-27T19:33:58.914Z,3.22
2022-09-27T19:36:27.041Z,3.17
2022-09-27T19:38:53.818Z,3.97
2022-09-27T19:41:20.517Z,4.45
2022-09-27T19:43:54.233Z,4.07
2022-09-27T19:46:22.451Z,3.70
2022-09-27T19:48:50.344Z,4.47
2022-09-27T19:51:22.613Z,6.05
2022-09-27T19:56:16.668Z,3.80
2022-09-27T19:58:43.969Z,3.75
2022-09-27T20:01:22.147Z,4.32
2022-09-27T20:03:50.180Z,4.43
2022-09-27T20:06:19.077Z,3.65
2022-09-27T20:08:47.732Z,3.90
2022-09-27T20:11:20.409Z,4.25
2022-09-27T20:13:49.301Z,4.13
2022-09-27T20:16:23.556Z,3.90
2022-09-27T20:18:55.760Z,4.20
2022-09-27T20:21:28.825Z,4.30
2022-09-27T20:23:56.756Z,4.60
2022-09-27T20:26:25.435Z,3.97
2022-09-27T20:28:54.379Z,4.40
2022-09-27T20:31:23.878Z,4.50
2022-09-27T20:33:51.351Z,4.28
2022-09-27T20:36:25.756Z,3.97
2022-09-27T20:38:59.564Z,4.22
2022-09-27T20:41:34.438Z,4.53
2022-09-27T20:46:33.457Z,4.13
2022-09-27T20:49:03.191Z,4.30
2022-09-27T20:51:34.120Z,4.18
2022-09-27T20:54:02.346Z,4.07
2022-09-27T20:56:35.363Z,4.60
2022-09-27T20:59:05.341Z,4.20
2022-09-27T21:01:33.461Z,4.32
2022-09-27T21:04:04.886Z,4.18
2022-09-27T21:06:32.844Z,4.53
2022-09-27T21:09:00.373Z,4.60
2022-09-27T21:11:27.694Z,4.40
2022-09-27T21:13:54.780Z,4.43
2022-09-27T21:16:26.967Z,4.60
2022-09-27T21:18:55.962Z,4.05
2022-09-27T21:21:24.487Z,4.20
2022-09-27T21:23:59.102Z,4.45
2022-09-27T21:26:27.900Z,4.47
2022-09-27T21:28:56.644Z,4.53
2022-09-27T21:31:32.362Z,3.92
2022-09-27T21:34:01.164Z,3.95
2022-09-27T21:36:30.780Z,4.05
2022-09-27T21:38:57.997Z,4.40
2022-09-27T21:41:25.621Z,4.32
2022-09-27T21:43:52.965Z,4.25
2022-09-27T21:46:28.417Z,3.75
2022-09-27T21:48:57.800Z,3.40
2022-09-27T21:51:27.579Z,2.65
2022-09-27T21:54:00.702Z,3.00
2022-09-27T21:56:30.059Z,3.78
2022-09-27T21:58:56.744Z,2.97
2022-09-27T22:01:26.766Z,4.05
2022-09-27T22:03:56.867Z,3.13
2022-09-27T22:06:29.454Z,3.20
2022-09-27T22:08:57.410Z,2.72
2022-09-27T22:11:27.614Z,3.72
2022-09-27T22:13:54.431Z,2.25
2022-09-27T22:16:22.784Z,3.33
2022-09-27T22:18:55.533Z,2.42
2022-09-27T22:21:25.478Z,3.15
2022-09-27T22:24:00.382Z,3.00
2022-09-27T22:26:31.824Z,3.45
2022-09-27T22:28:59.623Z,3.22
2022-09-27T22:31:27.538Z,2.80
2022-09-27T22:33:57.964Z,2.83
2022-09-27T22:36:25.426Z,2.88
2022-09-27T22:38:52.639Z,2.63
2022-09-27T22:41:20.202Z,2.33
2022-09-27T22:43:47.623Z,2.80
2022-09-27T22:46:15.138Z,2.67
2022-09-27T22:48:42.522Z,2.80
2022-09-27T22:51:09.235Z,2.83
2022-09-27T22:53:36.275Z,2.80
2022-09-27T22:56:09.047Z,2.83
2022-09-27T22:58:37.090Z,2.63
2022-09-27T23:01:13.295Z,2.88
2022-09-27T23:03:40.128Z,3.08
2022-09-27T23:06:07.751Z,3.10
2022-09-27T23:08:35.653Z,2.85
2022-09-27T23:11:04.673Z,2.90
2022-09-27T23:13:39.670Z,2.92
2022-09-27T23:16:09.512Z,2.80
2022-09-27T23:18:37.346Z,2.35
2022-09-27T23:21:07.154Z,2.53
2022-09-27T23:23:35.826Z,2.70
2022-09-27T23:26:06.269Z,2.75
2022-09-27T23:28:33.704Z,2.42
2022-09-27T23:31:05.561Z,2.78
2022-09-27T23:33:33.981Z,2.78
2022-09-27T23:36:02.544Z,2.35
2022-09-27T23:38:30.920Z,2.55
2022-09-27T23:40:58.216Z,2.55
2022-09-27T23:43:25.040Z,2.90
2022-09-27T23:45:57.146Z,2.80
2022-09-27T23:48:25.537Z,2.80
2022-09-27T23:50:52.263Z,2.90
2022-09-27T23:53:20.227Z,2.60
2022-09-27T23:55:46.922Z,2.80
2022-09-27T23:58:13.595Z,2.70
